Flugplatz Meschede-Schüren

Für EDKM sind keine METAR/TAF Berichte vorhanden.
Es werden die Flugwettermeldungen vom Flugplatz Paderborn Lippstadt in 43 km Entfernung angezeigt.

Bericht für EDLP

vom 20.10. um 03:20 UTC

Wind 15 kt aus 190°

Sichtweite 10 km oder mehr

gute Sicht, keine Wolken < 5000 ft, keine CB, keine Wettererscheinungen (CAVOK)

Temperatur 15.0°C

Taupunkt 8.0°C

Luftfeuchtigkeit 63%

Luftdruck 1010 hPa

EDLP 200320Z 19015KT CAVOK 15/08 Q1010

Prognose für EDLP

vom 19.10. um 23:00 UTC

Zwischen 00:00 UTC und 00:00 UTC

Wind 13 kt aus 200°

Sichtweite 10 km oder mehr

gering bewölkt in 3000 ft


Zwischen 08:00 UTC und 17:00 UTC zeitweise mit einer Wahrscheinlichkeit von 30%

Wind 15 kt aus 220° in Böen 30 kt


Zwischen 19:00 UTC und 00:00 UTC zeitweise mit einer Wahrscheinlichkeit von 30%

Wind 20 kt aus 220° in Böen 35 kt

Code: TSRA

aufgebrochene Bewölkung in 2000 ft

TAF EDLP 192300Z 2000/2024 20013KT 9999 FEW030 PROB30 TEMPO 2008/2017 22015G30KT PROB30 TEMPO 2019/2024 22020G35KT TSRA BKN020CB
Impressum